createdAt,value
2018-02-19T00:00:07.602Z,4.06
2018-02-19T00:00:48.157Z,4.12
2018-02-19T00:01:28.726Z,4.1
2018-02-19T00:02:09.287Z,4.1
2018-02-19T00:02:49.825Z,4.05
2018-02-19T00:03:30.387Z,4.08
2018-02-19T00:04:11.475Z,4.13
2018-02-19T00:04:52.046Z,4.13
2018-02-19T00:05:32.599Z,4.12
2018-02-19T00:06:13.159Z,4.06
2018-02-19T00:06:53.801Z,4.14
2018-02-19T00:07:34.362Z,4.08
2018-02-19T00:08:14.940Z,3.99
2018-02-19T00:08:55.543Z,4.08
2018-02-19T00:09:36.109Z,3.98
2018-02-19T00:10:16.667Z,4.04
2018-02-19T00:10:57.222Z,4.01
2018-02-19T00:11:37.784Z,3.99
2018-02-19T00:12:18.325Z,3.98
2018-02-19T00:12:58.882Z,4.05
2018-02-19T00:13:39.429Z,4.06
2018-02-19T00:14:19.978Z,4.01
2018-02-19T00:15:00.524Z,4.08
2018-02-19T00:15:41.060Z,4.06
2018-02-19T00:16:21.630Z,4.06
2018-02-19T00:17:02.190Z,4.04
2018-02-19T00:17:42.762Z,3.99
2018-02-19T00:18:23.342Z,4.06
2018-02-19T00:19:03.889Z,4.06
2018-02-19T00:19:44.391Z,4.04
2018-02-19T00:20:24.942Z,4.05
2018-02-19T00:21:05.492Z,4.04
2018-02-19T00:21:46.044Z,4.01
2018-02-19T00:22:26.632Z,3.98
2018-02-19T00:23:07.201Z,3.95
2018-02-19T00:23:47.760Z,4.01
2018-02-19T00:24:28.311Z,3.96
2018-02-19T00:25:08.880Z,3.91
2018-02-19T00:25:49.429Z,3.95
2018-02-19T00:26:29.995Z,3.92
2018-02-19T00:27:10.535Z,3.92
2018-02-19T00:27:51.106Z,4.05
2018-02-19T00:28:31.657Z,3.91
2018-02-19T00:29:12.213Z,3.99
2018-02-19T00:29:52.778Z,3.96
2018-02-19T00:30:33.330Z,3.96
2018-02-19T00:31:13.887Z,3.99
2018-02-19T00:31:54.451Z,4.04
2018-02-19T00:32:35.018Z,4.05
2018-02-19T00:33:15.570Z,4.02
2018-02-19T00:33:56.175Z,4.05
2018-02-19T00:34:36.726Z,4.04
2018-02-19T00:35:17.272Z,4.01
2018-02-19T00:35:57.824Z,4.01
2018-02-19T00:37:45.328Z,4.05
2018-02-19T00:38:25.886Z,4.05
2018-02-19T00:39:06.437Z,4.02
2018-02-19T00:39:46.992Z,3.99
2018-02-19T00:40:27.557Z,3.98
2018-02-19T00:41:08.100Z,3.88
2018-02-19T00:41:48.637Z,3.94
2018-02-19T00:42:29.203Z,3.96
2018-02-19T00:43:09.746Z,3.96
2018-02-19T00:43:50.295Z,3.94
2018-02-19T00:44:30.848Z,3.96
2018-02-19T00:45:11.409Z,3.95
2018-02-19T00:45:51.980Z,3.96
2018-02-19T00:46:32.527Z,3.92
2018-02-19T00:47:13.064Z,3.88
2018-02-19T00:47:53.613Z,3.94
2018-02-19T00:48:34.168Z,3.92
2018-02-19T00:49:14.744Z,3.91
2018-02-19T00:49:55.282Z,3.98
2018-02-19T00:50:35.819Z,3.88
2018-02-19T00:51:16.370Z,3.88
2018-02-19T00:51:56.915Z,3.88
2018-02-19T00:52:37.487Z,3.81
2018-02-19T00:53:18.048Z,3.83
2018-02-19T00:53:58.590Z,3.68
2018-02-19T00:54:39.142Z,3.84
2018-02-19T00:55:19.689Z,3.78
2018-02-19T00:56:00.252Z,3.8
2018-02-19T00:56:40.803Z,3.77
2018-02-19T00:57:21.334Z,3.8
2018-02-19T00:58:01.887Z,3.78
2018-02-19T00:58:42.438Z,3.77
2018-02-19T00:59:22.994Z,3.8
2018-02-19T01:00:03.535Z,3.77
2018-02-19T01:00:44.085Z,3.77
2018-02-19T01:01:24.648Z,3.8
2018-02-19T01:02:05.186Z,3.8
2018-02-19T01:02:45.743Z,3.83
2018-02-19T01:03:26.301Z,3.78
2018-02-19T01:04:06.893Z,3.74
2018-02-19T01:04:47.461Z,3.81
2018-02-19T01:05:28.036Z,3.87
2018-02-19T01:06:08.589Z,3.87
2018-02-19T01:06:49.155Z,3.81
2018-02-19T01:07:29.706Z,3.86
2018-02-19T01:08:10.258Z,3.88
2018-02-19T01:08:50.805Z,3.86
2018-02-19T01:09:31.349Z,3.88
2018-02-19T01:10:11.927Z,3.83
2018-02-19T01:10:52.464Z,3.84
2018-02-19T01:11:33.001Z,3.92
2018-02-19T01:12:13.596Z,3.86
2018-02-19T01:12:54.176Z,3.84
2018-02-19T01:13:34.749Z,3.84
2018-02-19T01:14:15.293Z,3.86
2018-02-19T01:14:55.859Z,3.88
2018-02-19T01:15:36.400Z,3.96
2018-02-19T01:16:16.970Z,3.87
2018-02-19T01:16:57.522Z,3.84
2018-02-19T01:17:38.075Z,3.84
2018-02-19T01:18:18.627Z,3.83
2018-02-19T01:18:59.176Z,3.78
2018-02-19T01:19:39.745Z,3.8
2018-02-19T01:20:20.280Z,3.77
2018-02-19T01:21:00.838Z,3.76
2018-02-19T01:21:41.379Z,3.81
2018-02-19T01:22:21.937Z,3.74
2018-02-19T01:23:02.488Z,3.68
2018-02-19T01:23:43.042Z,3.78
2018-02-19T01:24:23.593Z,3.69
2018-02-19T01:25:04.211Z,3.69
2018-02-19T01:25:44.753Z,3.68
2018-02-19T01:26:25.322Z,3.7
2018-02-19T01:27:05.888Z,3.66
2018-02-19T01:27:46.452Z,3.6
2018-02-19T01:28:27.056Z,3.65
2018-02-19T01:29:07.607Z,3.6
2018-02-19T01:29:48.193Z,3.62
2018-02-19T01:30:28.737Z,3.6
2018-02-19T01:31:09.283Z,3.62
2018-02-19T01:31:49.839Z,3.6
2018-02-19T01:32:30.400Z,3.62
2018-02-19T01:33:10.961Z,3.65
2018-02-19T01:33:51.517Z,3.66
2018-02-19T01:34:32.069Z,3.6
2018-02-19T01:35:12.613Z,3.65
2018-02-19T01:35:53.242Z,3.62
2018-02-19T01:36:33.800Z,3.63
2018-02-19T01:37:14.364Z,3.63
2018-02-19T01:37:54.940Z,3.62
2018-02-19T01:38:35.458Z,3.58
2018-02-19T01:39:16.026Z,3.63
2018-02-19T01:39:56.580Z,3.59
2018-02-19T01:40:37.142Z,3.7
2018-02-19T01:41:17.675Z,3.53
2018-02-19T01:41:58.227Z,3.51
2018-02-19T01:42:38.792Z,3.48
2018-02-19T01:43:19.352Z,3.34
2018-02-19T01:43:59.900Z,3.31
2018-02-19T01:44:40.499Z,3.29
2018-02-19T01:45:21.088Z,3.29
2018-02-19T01:46:01.640Z,3.32
2018-02-19T01:46:42.188Z,3.32
2018-02-19T01:47:22.745Z,3.36
2018-02-19T01:48:03.293Z,3.36
2018-02-19T01:48:43.833Z,3.37
2018-02-19T01:49:24.388Z,3.44
2018-02-19T01:50:04.943Z,3.37
2018-02-19T01:50:45.499Z,3.42
2018-02-19T01:51:26.037Z,3.5
2018-02-19T01:52:06.590Z,3.45
2018-02-19T01:52:47.145Z,3.5
2018-02-19T01:53:27.702Z,3.55
2018-02-19T01:54:08.262Z,3.51
2018-02-19T01:54:48.804Z,3.47
2018-02-19T01:55:29.360Z,3.53
2018-02-19T01:56:09.919Z,3.53
2018-02-19T01:56:50.490Z,3.48
2018-02-19T01:57:31.095Z,3.53
2018-02-19T01:58:11.664Z,3.48
2018-02-19T01:58:52.224Z,3.48
2018-02-19T01:59:32.782Z,3.48
2018-02-19T02:00:13.316Z,3.45
2018-02-19T02:00:53.870Z,3.42
2018-02-19T02:01:34.444Z,3.44
2018-02-19T02:02:14.996Z,3.55
2018-02-19T02:02:55.521Z,3.5
2018-02-19T02:03:36.085Z,3.56
2018-02-19T02:04:16.637Z,3.5
2018-02-19T02:04:57.200Z,3.53
2018-02-19T02:05:37.759Z,3.48
2018-02-19T02:06:18.370Z,3.56
2018-02-19T02:06:58.879Z,3.48
2018-02-19T02:07:39.447Z,3.47
2018-02-19T02:08:20.005Z,3.47
2018-02-19T02:09:00.580Z,3.48
2018-02-19T02:09:41.124Z,3.45
2018-02-19T02:10:21.644Z,3.51
2018-02-19T02:11:02.235Z,3.51
2018-02-19T02:11:42.796Z,3.44
2018-02-19T02:12:23.416Z,3.53
2018-02-19T02:13:03.943Z,3.44
2018-02-19T02:13:44.537Z,3.47
2018-02-19T02:14:25.091Z,3.4
2018-02-19T02:15:05.663Z,3.4
2018-02-19T02:15:46.226Z,3.44
2018-02-19T02:16:26.761Z,3.4
2018-02-19T02:17:07.334Z,3.47
2018-02-19T02:17:47.895Z,3.4
2018-02-19T02:18:28.474Z,3.48
2018-02-19T02:19:09.040Z,3.4
2018-02-19T02:19:49.620Z,3.44
2018-02-19T02:20:30.168Z,3.44
2018-02-19T02:21:10.736Z,3.51
2018-02-19T02:21:51.317Z,3.51
2018-02-19T02:22:31.876Z,3.48
2018-02-19T02:23:12.422Z,3.48
2018-02-19T02:23:52.966Z,3.51
2018-02-19T02:24:33.515Z,3.48
2018-02-19T02:25:14.056Z,3.51
2018-02-19T02:25:54.637Z,3.51
2018-02-19T02:26:35.199Z,3.44
2018-02-19T02:27:15.747Z,3.47
2018-02-19T02:27:56.461Z,3.47
2018-02-19T02:28:37.024Z,3.44
2018-02-19T02:29:17.580Z,3.42
2018-02-19T02:29:58.140Z,3.47
2018-02-19T02:30:38.701Z,3.48
2018-02-19T02:31:19.274Z,3.41
2018-02-19T02:31:59.822Z,3.45
2018-02-19T02:32:40.394Z,3.45
2018-02-19T02:33:20.944Z,3.47
2018-02-19T02:34:01.502Z,3.45
2018-02-19T02:34:42.050Z,3.48
2018-02-19T02:35:22.610Z,3.4
2018-02-19T02:36:03.153Z,3.47
2018-02-19T02:36:43.706Z,3.51
2018-02-19T02:37:24.255Z,3.44
2018-02-19T02:38:04.810Z,3.5
2018-02-19T02:38:45.392Z,3.5
2018-02-19T02:39:25.955Z,3.42
2018-02-19T02:40:06.505Z,3.36
2018-02-19T02:40:47.072Z,3.48
2018-02-19T02:41:27.623Z,3.34
2018-02-19T02:42:08.204Z,3.34
2018-02-19T02:42:48.746Z,3.34
2018-02-19T02:43:29.308Z,3.42
2018-02-19T02:44:09.851Z,3.4
2018-02-19T02:44:50.403Z,3.29
2018-02-19T02:45:30.933Z,3.28
2018-02-19T02:46:11.506Z,3.25
2018-02-19T02:46:52.038Z,3.18
2018-02-19T02:47:32.589Z,3.19
2018-02-19T02:48:13.139Z,3.23
2018-02-19T02:48:53.701Z,3.16
2018-02-19T02:49:34.244Z,3.22
2018-02-19T02:50:14.808Z,3.14
2018-02-19T02:50:55.363Z,3.14
2018-02-19T02:51:35.963Z,3.14
2018-02-19T02:52:16.490Z,3.19
2018-02-19T02:52:57.066Z,3.08
2018-02-19T02:53:37.645Z,3.1
2018-02-19T02:54:18.200Z,3.1
2018-02-19T02:54:58.746Z,3.1
2018-02-19T02:55:39.321Z,3.07
2018-02-19T02:56:19.866Z,3.1
2018-02-19T02:57:00.426Z,3.11
2018-02-19T02:57:40.977Z,3.08
2018-02-19T02:58:21.529Z,3.07
2018-02-19T02:59:02.077Z,3
2018-02-19T02:59:42.635Z,3.05
2018-02-19T03:00:23.161Z,3.11
2018-02-19T03:01:03.715Z,3.1
2018-02-19T03:01:44.266Z,3.07
2018-02-19T03:02:24.848Z,3.1
2018-02-19T03:03:05.402Z,3.13
2018-02-19T03:03:45.971Z,3.05
2018-02-19T03:04:26.512Z,3.13
2018-02-19T03:05:07.066Z,3.08
2018-02-19T03:05:47.611Z,3.08
2018-02-19T03:06:28.167Z,3.1
2018-02-19T03:07:08.720Z,3.08
2018-02-19T03:07:49.305Z,3.01
2018-02-19T03:08:29.847Z,3.1
2018-02-19T03:09:10.416Z,3.03
2018-02-19T03:09:50.979Z,3.03
2018-02-19T03:10:31.518Z,3
2018-02-19T03:11:12.070Z,2.98
2018-02-19T03:11:52.606Z,3.01
2018-02-19T03:12:33.154Z,2.85
2018-02-19T03:13:13.704Z,2.83
2018-02-19T03:13:54.255Z,2.92
2018-02-19T03:14:34.812Z,2.86
2018-02-19T03:15:15.356Z,2.87
2018-02-19T03:15:55.918Z,2.89
2018-02-19T03:16:36.499Z,2.69
2018-02-19T03:17:17.043Z,2.89
2018-02-19T03:17:57.608Z,2.9
2018-02-19T03:18:38.167Z,2.82
2018-02-19T03:19:18.734Z,2.79
2018-02-19T03:19:59.294Z,2.86
2018-02-19T03:20:39.851Z,2.69
2018-02-19T03:21:20.397Z,2.9
2018-02-19T03:22:00.957Z,2.74
2018-02-19T03:22:41.494Z,2.79
2018-02-19T03:23:22.044Z,2.79
2018-02-19T03:24:02.624Z,2.83
2018-02-19T03:24:43.178Z,2.9
2018-02-19T03:25:23.908Z,2.79
2018-02-19T03:26:04.458Z,2.82
2018-02-19T03:26:45.005Z,2.74
2018-02-19T03:27:25.555Z,2.77
2018-02-19T03:28:06.166Z,2.71
2018-02-19T03:28:46.720Z,2.75
2018-02-19T03:29:27.260Z,2.69
2018-02-19T03:30:07.827Z,2.68
2018-02-19T03:30:48.373Z,2.71
2018-02-19T03:31:28.925Z,2.62
2018-02-19T03:32:09.477Z,2.68
2018-02-19T03:32:50.039Z,2.65
2018-02-19T03:33:30.610Z,2.79
2018-02-19T03:34:11.153Z,2.64
2018-02-19T03:34:51.705Z,2.62
2018-02-19T03:35:32.268Z,2.71
2018-02-19T03:36:12.828Z,2.74
2018-02-19T03:36:53.393Z,2.75
2018-02-19T03:37:33.945Z,2.71
2018-02-19T03:38:14.484Z,2.74
2018-02-19T03:38:55.037Z,2.71
2018-02-19T03:39:35.586Z,2.74
2018-02-19T03:40:16.148Z,2.72
2018-02-19T03:40:56.692Z,2.71
2018-02-19T03:41:37.266Z,2.69
2018-02-19T03:42:17.835Z,2.74
2018-02-19T03:42:58.376Z,2.74
2018-02-19T03:43:38.927Z,2.67
2018-02-19T03:44:19.470Z,2.74
2018-02-19T03:45:00.031Z,2.74
2018-02-19T03:45:40.581Z,2.72
2018-02-19T03:46:21.154Z,2.68
2018-02-19T03:47:01.688Z,2.62
2018-02-19T03:47:42.214Z,2.71
2018-02-19T03:48:22.768Z,2.77
2018-02-19T03:49:03.312Z,2.74
2018-02-19T03:49:43.885Z,2.67
2018-02-19T03:50:24.452Z,2.67
2018-02-19T03:51:05.011Z,2.62
2018-02-19T03:51:45.553Z,2.68
2018-02-19T03:52:26.149Z,2.62
2018-02-19T03:53:06.698Z,2.65
2018-02-19T03:53:47.259Z,2.65
2018-02-19T03:54:27.820Z,2.62
2018-02-19T03:55:08.421Z,2.62
2018-02-19T03:55:48.908Z,2.61
2018-02-19T03:56:29.476Z,2.54
2018-02-19T03:57:10.021Z,2.62
2018-02-19T03:57:50.577Z,2.57
2018-02-19T03:58:31.139Z,2.65
2018-02-19T03:59:11.714Z,2.68
2018-02-19T03:59:52.288Z,2.64
2018-02-19T04:00:32.840Z,2.68
2018-02-19T04:01:13.410Z,2.71
2018-02-19T04:01:53.973Z,2.74
2018-02-19T04:02:34.537Z,2.74
2018-02-19T04:03:15.082Z,2.77
2018-02-19T04:03:55.648Z,2.71
2018-02-19T04:04:36.211Z,2.71
2018-02-19T04:05:16.769Z,2.74
2018-02-19T04:05:57.334Z,2.79
2018-02-19T04:06:37.868Z,2.82
2018-02-19T04:07:18.487Z,2.79
2018-02-19T04:07:59.012Z,2.82
2018-02-19T04:08:39.563Z,2.77
2018-02-19T04:09:20.107Z,2.79
2018-02-19T04:10:00.681Z,2.79
2018-02-19T04:10:41.230Z,2.77
2018-02-19T04:11:21.782Z,2.75
2018-02-19T04:12:02.334Z,2.74
2018-02-19T04:12:42.883Z,2.75
2018-02-19T04:13:23.421Z,2.69
2018-02-19T04:14:03.987Z,2.71
2018-02-19T04:14:44.536Z,2.67
2018-02-19T04:15:25.087Z,2.72
2018-02-19T04:16:05.642Z,2.68
2018-02-19T04:16:46.206Z,2.68
2018-02-19T04:17:26.768Z,2.61
2018-02-19T04:18:07.316Z,2.62
2018-02-19T04:18:47.874Z,2.61
2018-02-19T04:19:28.433Z,2.57
2018-02-19T04:20:08.973Z,2.61
2018-02-19T04:20:49.530Z,2.56
2018-02-19T04:21:30.084Z,2.54
2018-02-19T04:22:10.646Z,2.54
2018-02-19T04:22:51.205Z,2.54
2018-02-19T04:23:31.760Z,2.51
2018-02-19T04:24:12.318Z,2.65
2018-02-19T04:24:52.858Z,2.57
2018-02-19T04:25:33.409Z,2.6
2018-02-19T04:26:13.974Z,2.61
2018-02-19T04:26:54.518Z,2.53
2018-02-19T04:27:35.065Z,2.49
2018-02-19T04:28:15.626Z,2.46
2018-02-19T04:28:56.167Z,2.47
2018-02-19T04:29:36.718Z,2.43
2018-02-19T04:30:17.270Z,2.44
2018-02-19T04:30:57.843Z,2.43
2018-02-19T04:31:38.400Z,2.32
2018-02-19T04:32:18.955Z,2.35
2018-02-19T04:32:59.526Z,2.39
2018-02-19T04:33:40.075Z,2.36
2018-02-19T04:34:20.643Z,2.39
2018-02-19T04:35:01.209Z,2.44
2018-02-19T04:35:41.760Z,2.46
2018-02-19T04:36:22.305Z,2.43
2018-02-19T04:37:02.862Z,2.49
2018-02-19T04:37:43.422Z,2.43
2018-02-19T04:38:23.971Z,2.5
2018-02-19T04:39:04.528Z,2.44
2018-02-19T04:39:45.103Z,2.49
2018-02-19T04:40:25.668Z,2.44
2018-02-19T04:41:06.215Z,2.5
2018-02-19T04:41:46.801Z,2.47
2018-02-19T04:42:27.358Z,2.47
2018-02-19T04:43:07.900Z,2.49
2018-02-19T04:43:48.467Z,2.51
2018-02-19T04:44:29.023Z,2.56
2018-02-19T04:45:09.575Z,2.49
2018-02-19T04:45:50.122Z,2.56
2018-02-19T04:46:30.703Z,2.57
2018-02-19T04:47:11.307Z,2.51
2018-02-19T04:47:51.876Z,2.61
2018-02-19T04:48:32.436Z,2.64
2018-02-19T04:49:12.985Z,2.61
2018-02-19T04:49:53.553Z,2.61
2018-02-19T04:50:34.090Z,2.65
2018-02-19T04:51:14.663Z,2.65
2018-02-19T04:51:55.219Z,2.64
2018-02-19T04:52:35.764Z,2.64
2018-02-19T04:53:16.321Z,2.67
2018-02-19T04:53:56.869Z,2.6
2018-02-19T04:54:37.407Z,2.68
2018-02-19T04:55:17.971Z,2.65
2018-02-19T04:55:58.515Z,2.68
2018-02-19T04:56:39.066Z,2.56
2018-02-19T04:57:19.639Z,2.61
2018-02-19T04:58:00.151Z,2.54
2018-02-19T04:58:40.697Z,2.57
2018-02-19T04:59:21.256Z,2.61
2018-02-19T05:00:01.805Z,2.57
2018-02-19T05:00:42.355Z,2.67
2018-02-19T05:01:22.899Z,2.71
2018-02-19T05:02:03.453Z,2.64
2018-02-19T05:02:44.000Z,2.57
2018-02-19T05:03:24.553Z,2.6
2018-02-19T05:04:05.117Z,2.62
2018-02-19T05:04:45.666Z,2.57
2018-02-19T05:05:26.220Z,2.62
2018-02-19T05:06:06.776Z,2.56
2018-02-19T05:06:47.320Z,2.5
2018-02-19T05:07:27.868Z,2.5
2018-02-19T05:08:08.431Z,2.44
2018-02-19T05:08:48.975Z,2.43
2018-02-19T05:09:29.523Z,2.46
2018-02-19T05:10:10.062Z,2.35
2018-02-19T05:10:50.632Z,2.32
2018-02-19T05:11:31.205Z,2.32
2018-02-19T05:12:11.722Z,2.31
2018-02-19T05:12:52.284Z,2.24
2018-02-19T05:13:32.833Z,2.22
2018-02-19T05:14:13.391Z,2.24
2018-02-19T05:14:53.940Z,2.24
2018-02-19T05:15:34.498Z,2.24
2018-02-19T05:16:15.074Z,2.2
2018-02-19T05:16:55.631Z,2.18
2018-02-19T05:17:36.193Z,2.25
2018-02-19T05:18:16.779Z,2.18
2018-02-19T05:18:57.330Z,2.2
2018-02-19T05:19:37.924Z,2.24
2018-02-19T05:20:18.509Z,2.28
2018-02-19T05:20:59.089Z,2.18
2018-02-19T05:21:39.630Z,2.18
2018-02-19T05:22:20.187Z,2.24
2018-02-19T05:23:00.754Z,2.18
2018-02-19T05:23:41.397Z,2.2
2018-02-19T05:24:21.953Z,2.2
2018-02-19T05:25:02.508Z,2.18
2018-02-19T05:25:43.058Z,2.17
2018-02-19T05:26:23.674Z,2.15
2018-02-19T05:27:04.259Z,2.15
2018-02-19T05:27:44.811Z,2.2
2018-02-19T05:28:25.357Z,2.14
2018-02-19T05:29:05.962Z,2.13
2018-02-19T05:29:46.463Z,2.11
2018-02-19T05:30:27.057Z,2.18
2018-02-19T05:31:07.624Z,2.2
2018-02-19T05:31:48.267Z,2.22
2018-02-19T05:32:28.807Z,2.2
2018-02-19T05:33:09.370Z,2.18
2018-02-19T05:33:49.940Z,2.15
2018-02-19T05:34:30.531Z,2.07
2018-02-19T05:35:11.073Z,2.1
2018-02-19T05:35:51.625Z,2.15
2018-02-19T05:36:32.189Z,2.11
2018-02-19T05:37:12.739Z,2.08
2018-02-19T05:37:53.306Z,2.07
2018-02-19T05:38:33.879Z,2.15
2018-02-19T05:39:14.488Z,2.14
2018-02-19T05:39:55.039Z,2.14
2018-02-19T05:40:35.584Z,2.1
2018-02-19T05:41:16.130Z,2.11
2018-02-19T05:41:56.684Z,2.07
2018-02-19T05:42:37.249Z,2.13
2018-02-19T05:43:17.863Z,2.13
2018-02-19T05:43:58.450Z,2.13
2018-02-19T05:44:39.037Z,2.11
2018-02-19T05:45:19.538Z,2.06
2018-02-19T05:46:00.117Z,2.06
2018-02-19T05:46:40.651Z,2.15
2018-02-19T05:47:21.301Z,2.1
2018-02-19T05:48:02.675Z,2.02
2018-02-19T05:48:43.238Z,2.14
2018-02-19T05:49:23.807Z,2.17
2018-02-19T05:50:04.378Z,2.13
2018-02-19T05:50:44.941Z,2.13
2018-02-19T05:51:25.497Z,2.18
2018-02-19T05:52:06.049Z,2.13
2018-02-19T05:52:46.594Z,2.15
2018-02-19T05:53:27.281Z,2.11
2018-02-19T05:54:07.829Z,2.02
2018-02-19T05:54:48.380Z,2.11
2018-02-19T05:55:29.034Z,2.14
2018-02-19T05:56:09.608Z,2.1
2018-02-19T05:56:50.161Z,2.08
2018-02-19T05:57:30.745Z,2.06
2018-02-19T05:58:11.313Z,2.18
2018-02-19T05:58:51.872Z,2.15
2018-02-19T05:59:32.490Z,2.17
2018-02-19T06:00:12.997Z,2.14
2018-02-19T06:00:53.548Z,2.14
2018-02-19T06:01:34.093Z,2.17
2018-02-19T06:02:14.649Z,2.1
2018-02-19T06:02:55.207Z,2.1
2018-02-19T06:03:35.750Z,2.11
2018-02-19T06:04:16.343Z,2.1
2018-02-19T06:04:56.897Z,2.11
2018-02-19T06:05:37.570Z,2.02
2018-02-19T06:06:18.170Z,2.06
2018-02-19T06:06:58.715Z,2.11
2018-02-19T06:07:39.268Z,2.07
2018-02-19T06:08:19.820Z,2.14
2018-02-19T06:09:00.481Z,1.99
2018-02-19T06:09:41.025Z,1.99
2018-02-19T06:10:21.603Z,1.99
2018-02-19T06:11:02.147Z,1.97
2018-02-19T06:11:42.702Z,1.97
2018-02-19T06:12:23.252Z,1.91
2018-02-19T06:13:03.797Z,1.97
2018-02-19T06:13:44.351Z,1.97
2018-02-19T06:14:24.907Z,1.95
2018-02-19T06:15:05.459Z,2.04
2018-02-19T06:15:46.026Z,1.97
2018-02-19T06:16:26.555Z,1.95
2018-02-19T06:17:07.099Z,1.97
2018-02-19T06:17:47.654Z,2.04
2018-02-19T06:18:28.213Z,2.15
2018-02-19T06:19:08.774Z,2.1
2018-02-19T06:19:49.325Z,2.13
2018-02-19T06:20:29.871Z,2.13
2018-02-19T06:21:10.426Z,2.06
2018-02-19T06:21:50.991Z,2.1
2018-02-19T06:22:31.550Z,2.08
2018-02-19T06:23:12.102Z,2.11
2018-02-19T06:23:52.648Z,2.14
2018-02-19T06:24:33.207Z,2.14
2018-02-19T06:25:13.760Z,2.1
2018-02-19T06:25:54.315Z,2.14
2018-02-19T06:26:34.874Z,2.14
2018-02-19T06:27:15.426Z,2.17
2018-02-19T06:27:56.009Z,2.14
2018-02-19T06:28:36.547Z,2.14
2018-02-19T06:29:17.115Z,2.15
2018-02-19T06:29:57.676Z,2.18
2018-02-19T06:30:38.214Z,2.08
2018-02-19T06:31:18.767Z,2.13
2018-02-19T06:31:59.368Z,2.08
2018-02-19T06:32:39.921Z,2.1
2018-02-19T06:33:20.467Z,2.1
2018-02-19T06:34:01.046Z,2.13
2018-02-19T06:34:41.636Z,2.1
2018-02-19T06:35:22.223Z,2.04
2018-02-19T06:36:02.741Z,2.08
2018-02-19T06:36:43.292Z,2.08
2018-02-19T06:37:23.866Z,2.07
2018-02-19T06:38:04.471Z,2.07
2018-02-19T06:38:45.026Z,2.04
2018-02-19T06:39:25.584Z,2
2018-02-19T06:40:06.137Z,1.94
2018-02-19T06:40:46.684Z,2
2018-02-19T06:41:27.318Z,2
2018-02-19T06:42:07.893Z,1.97
2018-02-19T06:42:48.459Z,1.94
2018-02-19T06:43:29.001Z,2.14
2018-02-19T06:44:09.561Z,2.08
2018-02-19T06:44:50.129Z,2.1
2018-02-19T06:45:30.684Z,2.07
2018-02-19T06:46:11.227Z,2.07
2018-02-19T06:46:51.808Z,2.13
2018-02-19T06:47:32.328Z,2.14
2018-02-19T06:48:12.957Z,2.14
2018-02-19T06:48:53.434Z,2.17
2018-02-19T06:49:34.870Z,2.17
2018-02-19T06:50:15.431Z,2.17
2018-02-19T06:50:55.987Z,2.24
2018-02-19T06:51:36.513Z,2.28
2018-02-19T06:52:17.068Z,2.18
2018-02-19T06:52:57.627Z,2.14
2018-02-19T06:53:38.184Z,2.17
2018-02-19T06:54:18.740Z,2.13
2018-02-19T06:54:59.309Z,2.15
2018-02-19T06:55:39.853Z,2.2
2018-02-19T06:56:20.393Z,2.28
2018-02-19T06:57:00.955Z,2.25
2018-02-19T06:57:41.532Z,2.18
2018-02-19T06:58:22.079Z,2.25
2018-02-19T06:59:02.676Z,2.15
2018-02-19T06:59:43.192Z,2.24
2018-02-19T07:00:23.737Z,2.17
2018-02-19T07:01:04.291Z,2.17
2018-02-19T07:01:44.841Z,2.22
2018-02-19T07:02:25.377Z,2.17
2018-02-19T07:03:05.959Z,2.22
2018-02-19T07:03:46.498Z,2.26
2018-02-19T07:04:27.068Z,2.2
2018-02-19T07:05:07.608Z,2.17
2018-02-19T07:05:48.173Z,2.24
2018-02-19T07:06:28.730Z,2.2
2018-02-19T07:07:09.295Z,2.18
2018-02-19T07:07:49.854Z,2.22
2018-02-19T07:08:30.423Z,2.22
2018-02-19T07:09:11.021Z,2.26
2018-02-19T07:09:51.603Z,2.33
2018-02-19T07:10:32.197Z,2.29
2018-02-19T07:11:12.741Z,2.28
2018-02-19T07:11:53.290Z,2.35
2018-02-19T07:12:33.849Z,2.33
2018-02-19T07:13:14.400Z,2.38
2018-02-19T07:13:54.957Z,2.44
2018-02-19T07:14:35.506Z,2.43
2018-02-19T07:15:16.107Z,2.51
2018-02-19T07:15:56.665Z,2.54
2018-02-19T07:16:37.224Z,2.54
2018-02-19T07:17:17.782Z,2.57
2018-02-19T07:17:58.327Z,2.5
2018-02-19T07:18:38.894Z,2.57
2018-02-19T07:19:19.460Z,2.53
2018-02-19T07:20:00.022Z,2.47
2018-02-19T07:20:40.572Z,2.47
2018-02-19T07:21:21.132Z,2.51
2018-02-19T07:22:01.673Z,2.57
2018-02-19T07:22:42.226Z,2.51
2018-02-19T07:23:22.773Z,2.47
2018-02-19T07:24:03.328Z,2.53
2018-02-19T07:24:43.893Z,2.51
2018-02-19T07:25:24.432Z,2.57
2018-02-19T07:26:04.988Z,2.62
2018-02-19T07:26:45.526Z,2.6
2018-02-19T07:27:26.078Z,2.54
2018-02-19T07:28:06.632Z,2.57
2018-02-19T07:28:47.187Z,2.6
2018-02-19T07:29:27.745Z,2.61
2018-02-19T07:30:08.284Z,2.61
2018-02-19T07:30:48.839Z,2.61
2018-02-19T07:31:29.393Z,2.65
2018-02-19T07:32:09.956Z,2.56
2018-02-19T07:32:50.501Z,2.61
2018-02-19T07:33:31.048Z,2.61
2018-02-19T07:34:11.593Z,2.65
2018-02-19T07:34:52.137Z,2.57
2018-02-19T07:35:32.691Z,2.61
2018-02-19T07:36:13.225Z,2.53
2018-02-19T07:36:53.782Z,2.61
2018-02-19T07:37:34.342Z,2.61
2018-02-19T07:38:15.009Z,2.61
2018-02-19T07:38:55.565Z,2.68
2018-02-19T07:39:36.122Z,2.68
2018-02-19T07:40:16.685Z,2.62
2018-02-19T07:40:57.240Z,2.74
2018-02-19T07:41:37.809Z,2.65
2018-02-19T07:42:18.379Z,2.67
2018-02-19T07:42:58.943Z,2.71
2018-02-19T07:43:39.516Z,2.77
2018-02-19T07:44:20.158Z,2.75
2018-02-19T07:45:00.626Z,2.8
2018-02-19T07:45:41.176Z,2.8
2018-02-19T07:46:21.729Z,2.8
2018-02-19T07:47:02.296Z,2.89
2018-02-19T07:47:42.859Z,2.92
2018-02-19T07:48:23.432Z,2.9
2018-02-19T07:49:04.002Z,2.87
2018-02-19T07:49:44.553Z,2.86
2018-02-19T07:50:25.115Z,2.95
2018-02-19T07:51:05.674Z,2.95
2018-02-19T07:51:46.229Z,3.01
2018-02-19T07:52:26.788Z,3.07
2018-02-19T07:53:07.343Z,3.04
2018-02-19T07:53:47.887Z,3.01
2018-02-19T07:54:28.443Z,3.1
2018-02-19T07:55:08.995Z,3.1
2018-02-19T07:55:49.543Z,3.1
2018-02-19T07:56:30.125Z,3.11
2018-02-19T07:57:10.730Z,3.08
2018-02-19T07:57:51.327Z,3.05
2018-02-19T07:58:31.880Z,3.14
2018-02-19T07:59:12.462Z,3.19
2018-02-19T07:59:53.081Z,3.21
2018-02-19T08:00:33.629Z,3.23
2018-02-19T08:01:14.164Z,3.28
2018-02-19T08:01:54.745Z,3.22
2018-02-19T08:02:35.309Z,3.25
2018-02-19T08:03:15.884Z,3.28
2018-02-19T08:03:56.445Z,3.29
2018-02-19T08:04:37.018Z,3.34
2018-02-19T08:05:17.623Z,3.37
2018-02-19T08:05:58.192Z,3.36
2018-02-19T08:06:38.797Z,3.29
2018-02-19T08:07:19.304Z,3.34
2018-02-19T08:07:59.868Z,3.44
2018-02-19T08:08:40.430Z,3.47
2018-02-19T08:09:20.998Z,3.5
2018-02-19T08:10:01.548Z,3.51
2018-02-19T08:10:42.109Z,3.51
2018-02-19T08:11:22.678Z,3.53
2018-02-19T08:12:03.262Z,3.55
2018-02-19T08:12:43.843Z,3.48
2018-02-19T08:13:24.394Z,3.55
2018-02-19T08:14:04.942Z,3.65
2018-02-19T08:14:45.492Z,3.66
2018-02-19T08:15:26.046Z,3.69
2018-02-19T08:16:06.634Z,3.7
2018-02-19T08:16:47.201Z,3.83
2018-02-19T08:17:27.752Z,3.77
2018-02-19T08:18:08.319Z,3.83
2018-02-19T08:18:48.879Z,3.88
2018-02-19T08:19:29.453Z,3.69
2018-02-19T08:20:09.986Z,3.84
2018-02-19T08:20:50.512Z,3.81
2018-02-19T08:21:31.061Z,3.78
2018-02-19T08:22:11.639Z,3.81
2018-02-19T08:22:52.182Z,3.86
2018-02-19T08:23:32.760Z,3.87
2018-02-19T08:24:13.316Z,3.88
2018-02-19T08:24:53.865Z,4.05
2018-02-19T08:25:34.415Z,4.1
2018-02-19T08:26:14.954Z,4.05
2018-02-19T08:26:55.520Z,4.06
2018-02-19T08:27:36.100Z,4.2
2018-02-19T08:28:16.666Z,4.2
2018-02-19T08:28:57.204Z,4.22
2018-02-19T08:29:37.772Z,4.22
2018-02-19T08:30:18.331Z,4.3
2018-02-19T08:30:58.885Z,4.38
2018-02-19T08:31:39.467Z,4.48
2018-02-19T08:32:20.052Z,4.52
2018-02-19T08:33:00.581Z,4.67
2018-02-19T08:33:41.126Z,4.59
2018-02-19T08:34:21.666Z,4.75
2018-02-19T08:35:02.238Z,4.8
2018-02-19T08:35:42.788Z,4.86
2018-02-19T08:36:23.344Z,4.99
2018-02-19T08:37:03.916Z,5
2018-02-19T08:37:44.483Z,5
2018-02-19T08:38:25.093Z,4.94
2018-02-19T08:39:05.644Z,5.12
2018-02-19T08:39:46.199Z,5.04
2018-02-19T08:40:26.748Z,4.93
2018-02-19T08:41:07.312Z,4.93
2018-02-19T08:41:47.861Z,4.73
2018-02-19T08:42:28.399Z,4.71
2018-02-19T08:43:08.960Z,4.7
2018-02-19T08:43:49.515Z,4.63
2018-02-19T08:44:30.087Z,4.52
2018-02-19T08:45:10.652Z,4.63
2018-02-19T08:45:51.207Z,4.53
2018-02-19T08:46:31.750Z,4.53
2018-02-19T08:47:12.310Z,4.55
2018-02-19T08:47:52.860Z,4.44
2018-02-19T08:48:33.421Z,4.53
2018-02-19T08:49:13.974Z,4.73
2018-02-19T08:49:54.534Z,4.94
2018-02-19T08:50:35.090Z,5.15
2018-02-19T08:51:15.636Z,5.41
2018-02-19T08:51:56.189Z,5.65
2018-02-19T08:52:36.761Z,5.8
2018-02-19T08:53:17.352Z,6.02
2018-02-19T08:53:57.881Z,6.14
2018-02-19T08:54:38.422Z,6.3
2018-02-19T08:55:19.001Z,6.31
2018-02-19T08:55:59.549Z,6.54
2018-02-19T08:56:40.220Z,6.64
2018-02-19T08:57:20.639Z,6.75
2018-02-19T08:58:01.217Z,7
2018-02-19T08:58:41.770Z,7.14
2018-02-19T08:59:22.332Z,7.24
2018-02-19T09:00:02.898Z,7.36
2018-02-19T09:00:43.458Z,7.51
2018-02-19T09:01:24.036Z,7.63
2018-02-19T09:02:04.599Z,7.83
2018-02-19T09:02:45.151Z,7.95
2018-02-19T09:03:25.706Z,8.06